Time;durP1;ratioP1;P1;durP2;ratioP2;P2;SDS_P1;SDS_P2;PMS_P1;PMS_P2;Temp;Humidity;BMP_temperature;BMP_pressure;BME280_temperature;BME280_humidity;BME280_pressure;Samples;Min_cycle;Max_cycle;Signal;HPM_P1;HPM_P2
2022/04/23 00:01:42;;;;;;;17.67;12.10;;;;;;;;;;5071280;28;20045;-62
2022/04/23 00:04:14;;;;;;;16.47;11.53;;;;;;;;;;5071393;28;20063;-62
2022/04/23 00:06:43;;;;;;;15.70;11.60;;;;;;;;;;5070829;28;20103;-61
2022/04/23 00:09:09;;;;;;;17.27;13.10;;;;;;;;;;5070915;28;20045;-61
2022/04/23 00:11:35;;;;;;;15.37;12.60;;;;;;;;;;5067425;28;20045;-62
2022/04/23 00:14:02;;;;;;;20.77;11.80;;;;;;;;;;5069709;28;20043;-62
2022/04/23 00:16:28;;;;;;;20.13;12.90;;;;;;;;;;5070723;28;20057;-62
2022/04/23 00:18:54;;;;;;;20.40;13.83;;;;;;;;;;5054207;28;20045;-61
2022/04/23 00:21:20;;;;;;;18.17;13.87;;;;;;;;;;5055400;28;20056;-61
2022/04/23 00:23:50;;;;;;;18.60;13.77;;;;;;;;;;5070071;28;20040;-62
2022/04/23 00:26:16;;;;;;;18.47;12.70;;;;;;;;;;5070222;28;20040;-61
2022/04/23 00:28:42;;;;;;;16.50;12.63;;;;;;;;;;5070439;28;20056;-61
2022/04/23 00:31:08;;;;;;;20.03;13.93;;;;;;;;;;5070656;28;20087;-61
2022/04/23 00:33:37;;;;;;;18.63;14.43;;;;;;;;;;5069908;28;20109;-62
2022/04/23 00:36:08;;;;;;;19.07;14.07;;;;;;;;;;5070785;28;20490;-62
2022/04/23 00:38:36;;;;;;;19.43;14.60;;;;;;;;;;5070396;28;20471;-62
2022/04/23 00:41:02;;;;;;;20.70;14.50;;;;;;;;;;5070375;28;20106;-61
2022/04/23 00:43:28;;;;;;;22.33;14.90;;;;;;;;;;5070254;28;20098;-61
2022/04/23 00:45:55;;;;;;;18.63;14.10;;;;;;;;;;5086217;28;20368;-62
2022/04/23 00:48:21;;;;;;;25.90;14.37;;;;;;;;;;5058100;28;20053;-62
2022/04/23 00:50:49;;;;;;;21.67;15.70;;;;;;;;;;5050373;28;20048;-62
2022/04/23 00:53:15;;;;;;;19.33;13.90;;;;;;;;;;5058113;28;20127;-62
2022/04/23 00:55:42;;;;;;;18.80;14.07;;;;;;;;;;5070411;28;20068;-62
2022/04/23 00:58:08;;;;;;;19.53;13.83;;;;;;;;;;5069917;28;20545;-62
2022/04/23 01:00:34;;;;;;;22.00;15.10;;;;;;;;;;5068665;28;20075;-62
2022/04/23 01:03:00;;;;;;;20.37;15.60;;;;;;;;;;5070255;28;20052;-62
2022/04/23 01:05:26;;;;;;;22.07;15.53;;;;;;;;;;5069714;28;20041;-62
2022/04/23 01:07:53;;;;;;;21.80;16.93;;;;;;;;;;5069755;28;20102;-62
2022/04/23 01:10:19;;;;;;;18.43;15.10;;;;;;;;;;5069024;28;20044;-62
2022/04/23 01:12:46;;;;;;;21.47;15.00;;;;;;;;;;5070116;28;20049;-62
2022/04/23 01:15:15;;;;;;;23.70;14.57;;;;;;;;;;5070051;28;20049;-62
2022/04/23 01:17:42;;;;;;;19.27;15.07;;;;;;;;;;5069276;28;20047;-62
2022/04/23 01:20:09;;;;;;;20.07;15.03;;;;;;;;;;5069668;28;20047;-62
2022/04/23 01:22:38;;;;;;;22.27;16.70;;;;;;;;;;5068653;28;20507;-62
2022/04/23 01:25:06;;;;;;;24.47;16.00;;;;;;;;;;5069132;28;20041;-62
2022/04/23 01:27:33;;;;;;;21.03;14.50;;;;;;;;;;5069330;28;20602;-62
2022/04/23 01:29:59;;;;;;;20.30;15.77;;;;;;;;;;5069251;28;20080;-62
2022/04/23 01:32:25;;;;;;;21.37;16.03;;;;;;;;;;5068858;28;20106;-62
2022/04/23 01:34:51;;;;;;;22.47;16.60;;;;;;;;;;5067631;28;20104;-62
2022/04/23 01:37:17;;;;;;;21.30;16.23;;;;;;;;;;5057924;28;20096;-62
2022/04/23 01:39:49;;;;;;;21.07;15.27;;;;;;;;;;5049336;28;20049;-62
2022/04/23 01:42:19;;;;;;;23.10;15.77;;;;;;;;;;5054215;28;20036;-62
2022/04/23 01:44:50;;;;;;;22.50;15.23;;;;;;;;;;5068619;28;20090;-62
2022/04/23 01:47:16;;;;;;;20.67;16.10;;;;;;;;;;5069521;28;20036;-63
2022/04/23 01:49:44;;;;;;;24.10;17.73;;;;;;;;;;5069132;28;20045;-62
2022/04/23 01:52:10;;;;;;;23.33;17.37;;;;;;;;;;5068818;28;20164;-62
2022/04/23 01:54:36;;;;;;;19.93;15.60;;;;;;;;;;5068696;28;20572;-62
2022/04/23 01:57:03;;;;;;;20.93;16.50;;;;;;;;;;5068619;28;20499;-62
2022/04/23 01:59:30;;;;;;;23.23;15.77;;;;;;;;;;5068370;28;20040;-62
2022/04/23 02:01:56;;;;;;;20.67;15.83;;;;;;;;;;5068412;28;20052;-62
2022/04/23 02:04:22;;;;;;;22.53;15.70;;;;;;;;;;5068677;28;20426;-62
2022/04/23 02:06:48;;;;;;;20.00;15.37;;;;;;;;;;5068622;28;20044;-62
2022/04/23 02:09:14;;;;;;;20.93;16.00;;;;;;;;;;5069033;28;20044;-62
2022/04/23 02:11:40;;;;;;;24.27;16.93;;;;;;;;;;5068498;28;20454;-62
2022/04/23 02:14:06;;;;;;;25.30;17.40;;;;;;;;;;5068712;28;20051;-62
2022/04/23 02:16:33;;;;;;;20.67;15.80;;;;;;;;;;5068869;28;20051;-62
2022/04/23 02:19:03;;;;;;;20.83;16.53;;;;;;;;;;5068913;28;20074;-62
2022/04/23 02:21:29;;;;;;;21.93;15.67;;;;;;;;;;5068390;28;20047;-62
2022/04/23 02:23:55;;;;;;;19.80;15.77;;;;;;;;;;5068499;28;20066;-62
2022/04/23 02:26:21;;;;;;;18.43;14.80;;;;;;;;;;5068431;28;20573;-62
2022/04/23 02:28:48;;;;;;;19.57;15.33;;;;;;;;;;5068796;28;20048;-62
2022/04/23 02:31:14;;;;;;;22.70;16.07;;;;;;;;;;5068856;28;20549;-62
2022/04/23 02:33:40;;;;;;;19.80;15.20;;;;;;;;;;5068600;28;20411;-62
2022/04/23 02:36:06;;;;;;;20.77;15.70;;;;;;;;;;5068273;28;20688;-62
2022/04/23 02:38:33;;;;;;;20.73;15.40;;;;;;;;;;5072313;28;20491;-62
2022/04/23 02:40:59;;;;;;;23.53;16.30;;;;;;;;;;5072575;28;20048;-62
2022/04/23 02:43:25;;;;;;;18.43;14.47;;;;;;;;;;5071996;28;20040;-62
2022/04/23 02:45:52;;;;;;;19.83;15.80;;;;;;;;;;5072586;28;20114;-62
2022/04/23 02:48:18;;;;;;;21.30;16.23;;;;;;;;;;5072343;28;20045;-62
2022/04/23 02:50:44;;;;;;;20.07;16.00;;;;;;;;;;5072760;28;20052;-62
2022/04/23 02:53:11;;;;;;;20.10;15.33;;;;;;;;;;5072164;28;20040;-62
2022/04/23 02:55:37;;;;;;;21.67;17.03;;;;;;;;;;5071703;28;20037;-64
2022/04/23 02:58:07;;;;;;;22.63;17.33;;;;;;;;;;5063754;28;20048;-63
2022/04/23 03:00:33;;;;;;;21.23;16.77;;;;;;;;;;5071580;28;20193;-62
2022/04/23 03:02:59;;;;;;;21.07;15.60;;;;;;;;;;5072147;28;20041;-63
2022/04/23 03:05:26;;;;;;;21.20;17.43;;;;;;;;;;5071724;28;20060;-62
2022/04/23 03:07:53;;;;;;;22.13;17.67;;;;;;;;;;5071671;28;20051;-62
2022/04/23 03:10:20;;;;;;;23.30;16.00;;;;;;;;;;5071444;28;20036;-62
2022/04/23 03:12:46;;;;;;;21.00;16.77;;;;;;;;;;5071528;28;20094;-62
2022/04/23 03:15:13;;;;;;;22.13;16.37;;;;;;;;;;5072062;28;20044;-62
2022/04/23 03:17:39;;;;;;;21.27;16.10;;;;;;;;;;5071433;28;20144;-62
2022/04/23 03:20:07;;;;;;;22.07;15.97;;;;;;;;;;5071701;28;20082;-62
2022/04/23 03:22:34;;;;;;;23.23;16.60;;;;;;;;;;5071567;28;20048;-62
2022/04/23 03:25:00;;;;;;;22.57;16.57;;;;;;;;;;5071363;28;20053;-62
2022/04/23 03:27:26;;;;;;;26.40;15.67;;;;;;;;;;5071058;28;20044;-62
2022/04/23 03:29:52;;;;;;;25.30;17.30;;;;;;;;;;5071898;28;20169;-62
2022/04/23 03:32:18;;;;;;;18.37;14.17;;;;;;;;;;5071634;28;20487;-62
2022/04/23 03:34:44;;;;;;;21.43;15.37;;;;;;;;;;5071479;28;20049;-62
2022/04/23 03:37:10;;;;;;;23.90;16.83;;;;;;;;;;5071577;28;20048;-62
2022/04/23 03:39:37;;;;;;;19.07;14.57;;;;;;;;;;5066345;28;20037;-62
2022/04/23 03:42:03;;;;;;;20.03;15.00;;;;;;;;;;5069715;28;20498;-62
2022/04/23 03:44:31;;;;;;;20.93;14.93;;;;;;;;;;5070281;28;20052;-63
2022/04/23 03:46:58;;;;;;;24.77;16.73;;;;;;;;;;5067754;28;20040;-63
2022/04/23 03:49:24;;;;;;;23.17;15.90;;;;;;;;;;5051079;28;20041;-62
2022/04/23 03:51:51;;;;;;;21.50;15.40;;;;;;;;;;5051689;28;20081;-62
2022/04/23 03:54:17;;;;;;;24.63;16.20;;;;;;;;;;5051069;28;20052;-62
2022/04/23 03:56:43;;;;;;;23.07;16.23;;;;;;;;;;5071180;28;20048;-62
2022/04/23 03:59:09;;;;;;;22.50;15.70;;;;;;;;;;5071271;28;20073;-62
2022/04/23 04:01:35;;;;;;;21.47;15.37;;;;;;;;;;5071091;28;20041;-62
2022/04/23 04:04:01;;;;;;;23.60;16.17;;;;;;;;;;5069679;28;20033;-62
2022/04/23 04:06:28;;;;;;;20.33;15.53;;;;;;;;;;5066362;28;20048;-62
2022/04/23 04:08:55;;;;;;;21.27;15.67;;;;;;;;;;5070662;28;20176;-62
2022/04/23 04:11:21;;;;;;;22.00;15.90;;;;;;;;;;5070553;28;20133;-62
2022/04/23 04:13:47;;;;;;;23.27;17.13;;;;;;;;;;5070985;28;20059;-62
2022/04/23 04:16:14;;;;;;;18.10;14.20;;;;;;;;;;5070356;28;20102;-62
2022/04/23 04:18:40;;;;;;;19.77;14.47;;;;;;;;;;5070352;28;20044;-62
2022/04/23 04:21:06;;;;;;;19.43;14.57;;;;;;;;;;5070317;28;20585;-62
2022/04/23 04:23:32;;;;;;;20.43;15.87;;;;;;;;;;5070597;28;20553;-62
2022/04/23 04:25:58;;;;;;;18.77;15.63;;;;;;;;;;5070797;28;20048;-62
2022/04/23 04:28:24;;;;;;;20.90;13.90;;;;;;;;;;5070346;28;20055;-62
2022/04/23 04:33:36;;;;;;;22.50;15.17;;;;;;;;;;5069196;28;20048;-63
2022/04/23 04:36:02;;;;;;;17.77;12.90;;;;;;;;;;5069930;28;20044;-63
2022/04/23 04:38:28;;;;;;;16.13;12.60;;;;;;;;;;5069844;28;20430;-63
2022/04/23 04:40:54;;;;;;;18.70;13.17;;;;;;;;;;5069966;28;20450;-63
2022/04/23 04:43:20;;;;;;;20.43;13.63;;;;;;;;;;5069205;28;20049;-63
2022/04/23 04:45:46;;;;;;;17.57;13.37;;;;;;;;;;5070004;28;20044;-63
2022/04/23 04:48:12;;;;;;;27.37;14.57;;;;;;;;;;5069301;28;20370;-63
2022/04/23 04:50:38;;;;;;;16.37;12.77;;;;;;;;;;5069800;28;20131;-63
2022/04/23 04:53:04;;;;;;;17.57;13.27;;;;;;;;;;5069766;28;20127;-63
2022/04/23 04:55:33;;;;;;;15.33;13.00;;;;;;;;;;5070092;28;20521;-63
2022/04/23 04:57:59;;;;;;;14.90;12.13;;;;;;;;;;5069137;28;20567;-63
2022/04/23 05:00:27;;;;;;;15.37;12.20;;;;;;;;;;5068226;28;20044;-63
2022/04/23 05:02:54;;;;;;;15.20;12.10;;;;;;;;;;5068963;28;20041;-63
2022/04/23 05:05:20;;;;;;;15.93;12.23;;;;;;;;;;5067902;28;20083;-63
2022/04/23 05:07:46;;;;;;;14.87;12.27;;;;;;;;;;5068123;28;20037;-63
2022/04/23 05:10:13;;;;;;;18.47;12.50;;;;;;;;;;5067599;28;20502;-63
2022/04/23 05:12:38;;;;;;;15.27;11.50;;;;;;;;;;5068895;28;20044;-64
2022/04/23 05:15:05;;;;;;;13.83;11.40;;;;;;;;;;5056063;28;20045;-63
2022/04/23 05:17:31;;;;;;;14.33;10.67;;;;;;;;;;5049479;28;20045;-63
2022/04/23 05:19:57;;;;;;;17.23;12.60;;;;;;;;;;5049419;28;20132;-63
2022/04/23 05:22:23;;;;;;;14.53;11.30;;;;;;;;;;5063967;28;20048;-63
2022/04/23 05:24:49;;;;;;;16.37;12.10;;;;;;;;;;5069447;28;20051;-63
2022/04/23 05:27:15;;;;;;;13.10;10.50;;;;;;;;;;5068851;28;20041;-63
2022/04/23 05:29:41;;;;;;;14.83;10.57;;;;;;;;;;5068615;28;20123;-63
2022/04/23 05:32:07;;;;;;;12.20;9.93;;;;;;;;;;5069417;28;20090;-63
2022/04/23 05:34:34;;;;;;;11.60;9.33;;;;;;;;;;5069163;28;20059;-63
2022/04/23 05:37:01;;;;;;;11.20;8.80;;;;;;;;;;5068206;28;20064;-63
2022/04/23 05:39:27;;;;;;;9.67;8.63;;;;;;;;;;5068611;28;20052;-63
2022/04/23 05:41:53;;;;;;;12.23;9.60;;;;;;;;;;5069012;28;20044;-63
2022/04/23 05:44:19;;;;;;;11.40;9.67;;;;;;;;;;5068593;28;20106;-64
2022/04/23 05:46:45;;;;;;;11.10;8.73;;;;;;;;;;5068491;28;20529;-63
2022/04/23 05:49:11;;;;;;;10.57;8.63;;;;;;;;;;5068823;28;20048;-63
2022/04/23 05:51:37;;;;;;;11.33;8.27;;;;;;;;;;5068497;28;20411;-63
2022/04/23 05:54:03;;;;;;;11.40;7.60;;;;;;;;;;5069216;28;20048;-63
2022/04/23 05:56:29;;;;;;;11.10;8.40;;;;;;;;;;5069114;28;20056;-63
2022/04/23 05:58:55;;;;;;;9.30;8.03;;;;;;;;;;5068971;28;20139;-63
2022/04/23 06:01:21;;;;;;;10.63;8.37;;;;;;;;;;5067993;28;20143;-63
2022/04/23 06:03:47;;;;;;;11.50;8.23;;;;;;;;;;5069185;28;20060;-63
2022/04/23 06:06:13;;;;;;;9.60;8.57;;;;;;;;;;5067732;28;20055;-63
2022/04/23 06:08:42;;;;;;;10.23;8.17;;;;;;;;;;5067593;28;20522;-63
2022/04/23 06:11:08;;;;;;;8.87;7.73;;;;;;;;;;5067444;28;20565;-63
2022/04/23 06:13:34;;;;;;;12.93;7.60;;;;;;;;;;5067808;28;20552;-63
2022/04/23 06:16:00;;;;;;;12.60;8.17;;;;;;;;;;5068887;28;20049;-63
2022/04/23 06:18:26;;;;;;;11.57;7.83;;;;;;;;;;5068637;28;20041;-63
2022/04/23 06:20:52;;;;;;;9.37;7.03;;;;;;;;;;5067850;28;20041;-63
2022/04/23 06:23:18;;;;;;;9.73;8.00;;;;;;;;;;5067941;28;20049;-63
2022/04/23 06:25:44;;;;;;;11.33;8.77;;;;;;;;;;5068375;28;20044;-63
2022/04/23 06:28:11;;;;;;;11.87;7.87;;;;;;;;;;5068459;28;20040;-63
2022/04/23 06:30:39;;;;;;;11.20;8.93;;;;;;;;;;5067947;28;20132;-64
2022/04/23 06:33:06;;;;;;;10.43;8.07;;;;;;;;;;5068613;28;20057;-63
2022/04/23 06:35:32;;;;;;;11.17;8.60;;;;;;;;;;5067232;28;20047;-63
2022/04/23 06:37:59;;;;;;;11.57;8.30;;;;;;;;;;5067835;28;20393;-63
2022/04/23 06:40:25;;;;;;;12.27;8.40;;;;;;;;;;5068117;28;20040;-64
2022/04/23 06:42:51;;;;;;;15.17;8.93;;;;;;;;;;5068555;28;20383;-63
2022/04/23 06:45:17;;;;;;;18.07;9.13;;;;;;;;;;5067655;28;20102;-63
2022/04/23 06:47:43;;;;;;;11.33;8.57;;;;;;;;;;5067982;28;20640;-63
2022/04/23 06:50:09;;;;;;;13.27;9.73;;;;;;;;;;5068194;28;20044;-63
2022/04/23 06:52:35;;;;;;;11.27;8.50;;;;;;;;;;5067809;28;20040;-63
2022/04/23 06:55:02;;;;;;;11.17;8.97;;;;;;;;;;5068105;28;20045;-64
2022/04/23 06:57:28;;;;;;;9.70;8.23;;;;;;;;;;5067910;28;20040;-64
2022/04/23 06:59:54;;;;;;;11.90;8.70;;;;;;;;;;5067021;28;20067;-63
2022/04/23 07:02:20;;;;;;;13.83;9.30;;;;;;;;;;5067171;28;20163;-63
2022/04/23 07:04:46;;;;;;;13.27;9.57;;;;;;;;;;5068308;28;20051;-63
2022/04/23 07:07:12;;;;;;;12.87;9.20;;;;;;;;;;5067960;28;20051;-63
2022/04/23 07:09:38;;;;;;;9.90;8.20;;;;;;;;;;5068155;28;20052;-63
2022/04/23 07:12:05;;;;;;;13.23;9.17;;;;;;;;;;5067698;28;20045;-63
2022/04/23 07:14:35;;;;;;;11.87;8.63;;;;;;;;;;5067511;28;20699;-63
2022/04/23 07:17:01;;;;;;;11.97;9.60;;;;;;;;;;5067828;28;20045;-63
2022/04/23 07:19:27;;;;;;;12.77;8.50;;;;;;;;;;5067940;28;20380;-63
2022/04/23 07:21:53;;;;;;;11.57;9.33;;;;;;;;;;5067993;28;20465;-64
2022/04/23 07:24:19;;;;;;;11.67;9.13;;;;;;;;;;5071067;28;20056;-63
2022/04/23 07:26:46;;;;;;;11.33;9.73;;;;;;;;;;5071728;28;20048;-63
2022/04/23 07:29:13;;;;;;;12.07;8.87;;;;;;;;;;5071415;28;20092;-63
2022/04/23 07:31:39;;;;;;;10.73;8.80;;;;;;;;;;5070860;28;20158;-63
2022/04/23 07:39:51;;;;;;;12.30;8.90;;;;;;;;;;5072641;28;20049;-62
2022/04/23 07:42:18;;;;;;;11.77;9.50;;;;;;;;;;5071190;28;20095;-62
2022/04/23 07:44:44;;;;;;;13.50;10.20;;;;;;;;;;5071307;28;20040;-63
2022/04/23 07:47:10;;;;;;;19.30;10.30;;;;;;;;;;5071090;28;20044;-63
2022/04/23 07:49:37;;;;;;;12.17;9.23;;;;;;;;;;5070684;28;20484;-63
2022/04/23 07:52:04;;;;;;;16.20;9.40;;;;;;;;;;5071172;28;20084;-63
2022/04/23 07:54:30;;;;;;;14.63;9.53;;;;;;;;;;5070916;28;20040;-63
2022/04/23 07:56:56;;;;;;;16.43;9.63;;;;;;;;;;5070766;28;20547;-62
2022/04/23 07:59:22;;;;;;;12.73;8.77;;;;;;;;;;5070792;28;20040;-62
2022/04/23 08:01:49;;;;;;;11.83;9.27;;;;;;;;;;5070416;28;20059;-62
2022/04/23 08:04:15;;;;;;;13.30;9.27;;;;;;;;;;5071256;28;20097;-62
2022/04/23 08:06:41;;;;;;;12.47;9.20;;;;;;;;;;5070303;28;20552;-62
2022/04/23 08:09:07;;;;;;;10.63;8.80;;;;;;;;;;5071059;28;20048;-63
2022/04/23 08:11:33;;;;;;;12.13;8.50;;;;;;;;;;5070539;28;20143;-62
2022/04/23 08:13:59;;;;;;;13.70;8.60;;;;;;;;;;5070530;28;20041;-62
2022/04/23 08:16:28;;;;;;;10.83;8.27;;;;;;;;;;5070277;28;20046;-62
2022/04/23 08:18:54;;;;;;;11.40;8.70;;;;;;;;;;5070655;28;20044;-63
2022/04/23 08:21:20;;;;;;;14.83;8.73;;;;;;;;;;5086209;28;20410;-63
2022/04/23 08:23:46;;;;;;;11.77;8.37;;;;;;;;;;5070225;28;20045;-62
2022/04/23 08:26:12;;;;;;;11.73;8.50;;;;;;;;;;5070415;28;20414;-63
2022/04/23 08:31:23;;;;;;;13.27;8.30;;;;;;;;;;5069473;28;20056;-63
2022/04/23 08:33:58;;;;;;;13.10;8.00;;;;;;;;;;5069716;28;20047;-63
2022/04/23 08:36:26;;;;;;;13.20;8.07;;;;;;;;;;5069795;28;20036;-63
2022/04/23 08:38:55;;;;;;;15.50;8.53;;;;;;;;;;5051640;28;20052;-63
2022/04/23 08:41:27;;;;;;;13.17;8.83;;;;;;;;;;5050139;28;20079;-63
2022/04/23 08:43:53;;;;;;;11.38;7.82;;;;;;;;;;5050309;28;20569;-64
2022/04/23 08:46:20;;;;;;;14.83;8.07;;;;;;;;;;5049633;28;20136;-63
2022/04/23 08:48:50;;;;;;;10.27;7.93;;;;;;;;;;5056681;28;20517;-63
2022/04/23 08:51:20;;;;;;;11.43;7.33;;;;;;;;;;5069383;28;20052;-61
2022/04/23 08:53:47;;;;;;;14.83;7.57;;;;;;;;;;5069744;28;20040;-61
2022/04/23 08:56:13;;;;;;;11.93;8.33;;;;;;;;;;5069973;28;20076;-61
2022/04/23 08:58:39;;;;;;;11.97;7.80;;;;;;;;;;5069197;28;20071;-62
2022/04/23 09:01:06;;;;;;;10.37;7.90;;;;;;;;;;5069378;28;20045;-61
2022/04/23 09:03:32;;;;;;;12.60;7.27;;;;;;;;;;5069890;28;20055;-62
2022/04/23 09:05:58;;;;;;;11.60;7.67;;;;;;;;;;5069687;28;20099;-62
2022/04/23 09:08:26;;;;;;;13.10;7.57;;;;;;;;;;5069335;28;20080;-62
2022/04/23 09:10:54;;;;;;;11.07;7.47;;;;;;;;;;5069642;28;20091;-62
2022/04/23 09:13:38;;;;;;;10.97;7.03;;;;;;;;;;5069620;28;20056;-62
2022/04/23 09:24:45;;;;;;;9.43;7.33;;;;;;;;;;5068804;28;20053;-63
2022/04/23 09:27:11;;;;;;;10.32;6.80;;;;;;;;;;5068655;28;20044;-62
2022/04/23 09:29:37;;;;;;;14.73;7.47;;;;;;;;;;5069005;28;20097;-63
2022/04/23 09:32:10;;;;;;;11.23;6.90;;;;;;;;;;5068741;28;20044;-63
2022/04/23 09:34:37;;;;;;;9.23;7.68;;;;;;;;;;5068906;28;20056;-63
2022/04/23 09:37:03;;;;;;;16.53;7.37;;;;;;;;;;5084234;28;20059;-63
2022/04/23 09:39:31;;;;;;;8.37;7.03;;;;;;;;;;5068922;28;20423;-63
2022/04/23 09:42:15;;;;;;;10.57;7.53;;;;;;;;;;5068591;28;20040;-62
2022/04/23 09:44:42;;;;;;;8.57;7.33;;;;;;;;;;5069132;28;20141;-63
2022/04/23 09:47:08;;;;;;;9.17;7.50;;;;;;;;;;5068642;28;20041;-62
2022/04/23 09:49:34;;;;;;;12.33;7.93;;;;;;;;;;5068164;28;20041;-63
2022/04/23 09:52:04;;;;;;;10.47;7.67;;;;;;;;;;5068895;28;20106;-63
2022/04/23 09:54:31;;;;;;;11.77;7.87;;;;;;;;;;5068807;28;20040;-63
2022/04/23 09:56:58;;;;;;;10.93;7.83;;;;;;;;;;5068799;28;20043;-63
2022/04/23 09:59:24;;;;;;;11.50;7.70;;;;;;;;;;5067507;28;20394;-63
2022/04/23 10:01:50;;;;;;;9.00;7.50;;;;;;;;;;5068504;28;20036;-62
2022/04/23 10:04:21;;;;;;;10.30;8.60;;;;;;;;;;5068578;28;20097;-62
2022/04/23 10:06:49;;;;;;;12.47;8.13;;;;;;;;;;5068648;28;20044;-62
2022/04/23 10:09:18;;;;;;;13.33;9.00;;;;;;;;;;5068615;28;20123;-62
2022/04/23 10:11:44;;;;;;;11.87;8.17;;;;;;;;;;5068580;28;20165;-63
2022/04/23 10:14:13;;;;;;;8.73;7.80;;;;;;;;;;5068229;28;20210;-62
2022/04/23 10:16:40;;;;;;;9.97;7.60;;;;;;;;;;5068899;28;20056;-62
2022/04/23 10:19:07;;;;;;;9.30;8.30;;;;;;;;;;5068297;28;20051;-62
2022/04/23 10:21:40;;;;;;;12.23;9.10;;;;;;;;;;5068205;28;20601;-63
2022/04/23 10:24:23;;;;;;;8.90;7.50;;;;;;;;;;5068179;28;20095;-63
2022/04/23 10:26:51;;;;;;;10.87;7.93;;;;;;;;;;5068624;28;20055;-63
2022/04/23 10:29:22;;;;;;;10.13;7.63;;;;;;;;;;5068471;28;20048;-63
2022/04/23 10:32:06;;;;;;;10.80;7.73;;;;;;;;;;5067827;28;20072;-62
2022/04/23 10:34:33;;;;;;;11.33;7.67;;;;;;;;;;5067875;28;20045;-63
2022/04/23 10:37:18;;;;;;;11.10;7.57;;;;;;;;;;5068076;28;20518;-63
2022/04/23 10:39:45;;;;;;;9.10;8.03;;;;;;;;;;5068232;28;20500;-63
2022/04/23 10:42:15;;;;;;;9.47;8.47;;;;;;;;;;5068178;28;20048;-63
2022/04/23 10:44:42;;;;;;;9.47;8.27;;;;;;;;;;5068445;28;20131;-63
2022/04/23 10:47:12;;;;;;;9.37;7.83;;;;;;;;;;5068070;28;20049;-63
2022/04/23 10:49:39;;;;;;;9.97;8.70;;;;;;;;;;5068175;28;20036;-63
2022/04/23 10:52:05;;;;;;;9.77;7.80;;;;;;;;;;5068081;28;20048;-63
2022/04/23 10:54:40;;;;;;;9.80;7.73;;;;;;;;;;5068649;28;20048;-62
2022/04/23 10:57:10;;;;;;;9.07;7.80;;;;;;;;;;5068040;28;20048;-63
2022/04/23 10:59:38;;;;;;;12.38;7.72;;;;;;;;;;5071678;28;20499;-62
2022/04/23 11:02:06;;;;;;;10.07;7.33;;;;;;;;;;5071951;28;20572;-63
2022/04/23 11:04:33;;;;;;;10.60;7.53;;;;;;;;;;5071996;28;20084;-63
2022/04/23 11:12:30;;;;;;;10.52;7.57;;;;;;;;;;5071575;28;20177;-63
2022/04/23 11:14:56;;;;;;;8.75;7.80;;;;;;;;;;5072296;28;20128;-63
2022/04/23 11:17:32;;;;;;;12.50;8.30;;;;;;;;;;5071781;28;20044;-63
2022/04/23 11:19:59;;;;;;;9.50;8.32;;;;;;;;;;5071459;28;20060;-63
2022/04/23 11:22:26;;;;;;;14.15;8.90;;;;;;;;;;5071386;28;20060;-63
2022/04/23 11:24:53;;;;;;;11.10;9.00;;;;;;;;;;5071599;28;20037;-63
2022/04/23 11:27:26;;;;;;;9.27;7.38;;;;;;;;;;5071681;28;20123;-63
2022/04/23 11:29:53;;;;;;;11.73;7.38;;;;;;;;;;5071635;28;20044;-62
2022/04/23 11:32:26;;;;;;;8.65;7.68;;;;;;;;;;5070987;28;20402;-63
2022/04/23 11:34:55;;;;;;;10.48;7.85;;;;;;;;;;5071712;28;20047;-63
2022/04/23 11:37:31;;;;;;;8.90;7.10;;;;;;;;;;5071528;28;20059;-63
2022/04/23 11:40:04;;;;;;;10.32;8.35;;;;;;;;;;5071508;28;20056;-63
2022/04/23 11:42:40;;;;;;;8.00;7.10;;;;;;;;;;5087011;28;20041;-63
2022/04/23 11:45:07;;;;;;;9.05;7.28;;;;;;;;;;5069785;28;20403;-63
2022/04/23 11:47:33;;;;;;;7.70;6.90;;;;;;;;;;5071116;28;20083;-63
2022/04/23 11:50:10;;;;;;;10.30;7.60;;;;;;;;;;5070951;28;20147;-63
2022/04/23 11:52:36;;;;;;;12.07;7.78;;;;;;;;;;5070646;28;20052;-63
2022/04/23 11:55:02;;;;;;;10.50;7.20;;;;;;;;;;5070787;28;20098;-63
2022/04/23 11:57:28;;;;;;;10.40;7.05;;;;;;;;;;5070829;28;20119;-63
2022/04/23 12:00:03;;;;;;;10.48;6.65;;;;;;;;;;5071135;28;20044;-62
2022/04/23 12:02:30;;;;;;;11.60;7.70;;;;;;;;;;5070925;28;20064;-62
2022/04/23 12:05:03;;;;;;;8.18;7.15;;;;;;;;;;5071050;28;20040;-62
2022/04/23 12:07:32;;;;;;;9.10;6.38;;;;;;;;;;5070354;28;20045;-63
2022/04/23 12:09:58;;;;;;;10.52;8.00;;;;;;;;;;5071102;28;20076;-62
2022/04/23 12:12:25;;;;;;;9.93;7.57;;;;;;;;;;5070657;28;20428;-62
2022/04/23 12:14:55;;;;;;;9.15;7.45;;;;;;;;;;5070631;28;20040;-62
2022/04/23 12:17:29;;;;;;;9.43;6.18;;;;;;;;;;5070763;28;20056;-62
2022/04/23 12:19:55;;;;;;;7.10;6.40;;;;;;;;;;5070167;28;20112;-62
2022/04/23 12:22:23;;;;;;;8.48;6.40;;;;;;;;;;5070626;28;20044;-62
2022/04/23 12:24:49;;;;;;;7.18;6.47;;;;;;;;;;5070438;28;20036;-62
2022/04/23 12:27:17;;;;;;;6.70;5.68;;;;;;;;;;5070584;28;20101;-62
2022/04/23 12:40:53;;;;;;;9.98;5.43;;;;;;;;;;5070013;28;20044;-63
2022/04/23 12:43:20;;;;;;;5.28;4.75;;;;;;;;;;5070285;28;20041;-63
2022/04/23 12:45:46;;;;;;;7.53;4.70;;;;;;;;;;5070226;28;20036;-63
2022/04/23 12:48:14;;;;;;;5.88;4.38;;;;;;;;;;5069650;28;20491;-63
2022/04/23 12:50:44;;;;;;;6.80;4.43;;;;;;;;;;5069562;28;20049;-63
2022/04/23 12:53:11;;;;;;;6.18;5.45;;;;;;;;;;5069689;28;20041;-63
2022/04/23 12:55:37;;;;;;;8.27;4.95;;;;;;;;;;5069711;28;20413;-63
2022/04/23 12:58:03;;;;;;;8.90;4.78;;;;;;;;;;5069814;28;20048;-63
2022/04/23 13:00:30;;;;;;;5.75;4.35;;;;;;;;;;5069750;28;20410;-61
2022/04/23 13:02:59;;;;;;;6.57;4.32;;;;;;;;;;5069225;28;20040;-62
2022/04/23 13:05:26;;;;;;;5.75;4.60;;;;;;;;;;5069162;28;20047;-63
2022/04/23 13:10:37;;;;;;;8.38;5.00;;;;;;;;;;5069553;28;20053;-62
2022/04/23 13:13:05;;;;;;;6.22;4.45;;;;;;;;;;5069658;28;20159;-62
2022/04/23 13:15:32;;;;;;;7.28;4.57;;;;;;;;;;5069323;28;20052;-62
2022/04/23 13:17:57;;;;;;;6.82;4.82;;;;;;;;;;5069669;28;20048;-62
2022/04/23 13:20:23;;;;;;;9.00;4.32;;;;;;;;;;5068636;28;20052;-63
2022/04/23 13:22:50;;;;;;;7.28;4.18;;;;;;;;;;5069154;28;20464;-63
2022/04/23 13:25:17;;;;;;;5.47;3.95;;;;;;;;;;5069112;28;20044;-62
2022/04/23 13:27:44;;;;;;;5.55;4.03;;;;;;;;;;5068765;28;20037;-62
2022/04/23 13:30:10;;;;;;;5.15;3.95;;;;;;;;;;5068580;28;20502;-62
2022/04/23 13:32:39;;;;;;;6.82;3.50;;;;;;;;;;5068528;28;20047;-62
2022/04/23 13:35:06;;;;;;;8.10;4.25;;;;;;;;;;5069169;28;20040;-62
2022/04/23 13:37:33;;;;;;;4.20;3.75;;;;;;;;;;5068902;28;20472;-63
2022/04/23 13:39:59;;;;;;;5.88;4.47;;;;;;;;;;5069015;28;20045;-63
2022/04/23 13:42:26;;;;;;;8.25;4.40;;;;;;;;;;5068972;28;20606;-62
2022/04/23 13:44:53;;;;;;;4.05;3.60;;;;;;;;;;5069153;28;20056;-62
2022/04/23 13:47:20;;;;;;;8.23;3.78;;;;;;;;;;5068816;28;20596;-63
2022/04/23 13:49:46;;;;;;;8.70;4.38;;;;;;;;;;5068890;28;20495;-63
2022/04/23 13:52:12;;;;;;;6.35;4.05;;;;;;;;;;5068760;28;20048;-62
2022/04/23 13:54:38;;;;;;;7.25;3.70;;;;;;;;;;5068462;28;20516;-62
2022/04/23 13:57:06;;;;;;;6.13;3.70;;;;;;;;;;5064742;28;20087;-63
2022/04/23 13:59:35;;;;;;;9.18;3.88;;;;;;;;;;5048450;28;20135;-62
2022/04/23 14:10:17;;;;;;;6.95;4.05;;;;;;;;;;5048850;28;20045;-62
2022/04/23 14:12:43;;;;;;;7.60;4.05;;;;;;;;;;5048610;28;20045;-62
2022/04/23 14:15:10;;;;;;;6.35;4.20;;;;;;;;;;5048595;28;20072;-62
2022/04/23 14:17:36;;;;;;;5.63;4.50;;;;;;;;;;5048276;28;20566;-62
2022/04/23 14:20:02;;;;;;;7.05;3.80;;;;;;;;;;5048793;28;20044;-62
2022/04/23 14:22:29;;;;;;;6.15;4.38;;;;;;;;;;5048465;28;20084;-62
2022/04/23 14:24:55;;;;;;;7.60;4.32;;;;;;;;;;5048585;28;20210;-62
2022/04/23 14:27:21;;;;;;;5.60;3.50;;;;;;;;;;5061265;28;20507;-62
2022/04/23 14:29:49;;;;;;;6.55;3.83;;;;;;;;;;5068596;28;20052;-62
2022/04/23 14:32:16;;;;;;;4.80;3.95;;;;;;;;;;5068215;28;20128;-62
2022/04/23 14:34:44;;;;;;;7.30;3.58;;;;;;;;;;5072550;28;20041;-62
2022/04/23 14:37:10;;;;;;;6.60;4.40;;;;;;;;;;5072106;28;20178;-62
2022/04/23 14:39:36;;;;;;;6.50;4.03;;;;;;;;;;5070951;28;20536;-62
2022/04/23 14:42:02;;;;;;;7.63;3.78;;;;;;;;;;5072489;28;20408;-62
2022/04/23 14:44:28;;;;;;;5.93;3.10;;;;;;;;;;5072360;28;20517;-62
2022/04/23 14:46:54;;;;;;;6.00;3.65;;;;;;;;;;5072246;28;20109;-62
2022/04/23 14:49:21;;;;;;;4.68;3.78;;;;;;;;;;5072122;28;20052;-62
2022/04/23 14:54:32;;;;;;;5.63;3.42;;;;;;;;;;5071976;28;20049;-62
2022/04/23 14:56:58;;;;;;;8.65;3.97;;;;;;;;;;5071839;28;20045;-62
2022/04/23 14:59:26;;;;;;;6.20;3.83;;;;;;;;;;5072090;28;20045;-62
2022/04/23 15:01:52;;;;;;;5.45;3.90;;;;;;;;;;5071782;28;20044;-62
2022/04/23 15:04:19;;;;;;;8.20;4.18;;;;;;;;;;5071666;28;20047;-62
2022/04/23 15:06:47;;;;;;;8.30;4.20;;;;;;;;;;5071593;28;20624;-62
2022/04/23 15:09:13;;;;;;;5.53;3.83;;;;;;;;;;5071887;28;20048;-62
2022/04/23 15:11:39;;;;;;;10.38;4.38;;;;;;;;;;5071481;28;20127;-62
2022/04/23 15:14:05;;;;;;;7.90;4.03;;;;;;;;;;5071497;28;20495;-62
2022/04/23 15:16:31;;;;;;;5.35;3.50;;;;;;;;;;5070741;28;20045;-62
2022/04/23 15:18:57;;;;;;;6.80;3.83;;;;;;;;;;5071767;28;20842;-62